Spartak — LZG2337 — position and weather

sailwx.info

Track history (hours):
 
Tides and Currents Weather Stations Pressure Air Temp Water Temp Dewpoint Dewpoint Depression Visibility Wind Speed Wind Dir Waves Ship Positions

Spartak

Last reported at 2018-Jul-12 07:28 UTC. Time now 2018-Jul-21 15:36 UTC.
Position N 44°18' E 028°03'.
Warning: this ship's position is 9 days out of date.

Length 207 m; draft 2.4 m.

Type: Tanker. MMSI: 207072337.

Date/timePositionNaut miles runAvg speedWind from/ knotsBaromVisibWave heightAir tempDewpointWater temp
2018-Jul-12 07:28N 44°18' E 028°03'3 6.4
2018-Jul-12 06:58N 44°16' E 028°07'3 6.6
2018-Jul-12 06:30N 44°16' E 028°11'3 6.7
2018-Jul-12 06:00N 44°15' E 028°16'3 6.7
2018-Jul-12 05:30N 44°15' E 028°20'3 6.6
2018-Jul-12 05:00N 44°13' E 028°23'7 7.0
2018-Jul-12 03:57N 44°06' E 028°28'4 7.6
2018-Jul-12 03:29N 44°06' E 028°33'3 5.9
2018-Jul-12 02:59N 44°06' E 028°37'1 2.5
2018-Jul-12 02:30N 44°06' E 028°39'1 1.6
2018-Jul-12 02:01N 44°07' E 028°39'1 2.1
2018-Jul-12 01:30N 44°06' E 028°39'1 2.5
2018-Jul-12 01:00N 44°06' E 028°37'0 0.0
2018-Jul-12 00:30N 44°06' E 028°37'0 0.8
2018-Jul-12 00:00N 44°06' E 028°37'0 0.4
2018-Jul-11 23:30N 44°06' E 028°36'0 0.0
2018-Jul-11 23:00N 44°06' E 028°36'0 0.1
2018-Jul-11 22:30N 44°06' E 028°36'2 4.1
2018-Jul-11 22:00N 44°06' E 028°33'5 4.7
2018-Jul-11 20:58N 44°07' E 028°27'3 4.9
2018-Jul-11 20:19N 44°10' E 028°25'2 5.4
2018-Jul-11 20:01N 44°11' E 028°24'3 5.9
2018-Jul-11 19:29N 44°14' E 028°22'3 5.4
2018-Jul-11 19:00N 44°15' E 028°18'3 5.9
2018-Jul-11 18:30N 44°15' E 028°14'3 6.0
2018-Jul-11 18:00N 44°16' E 028°10'3 6.0
2018-Jul-11 17:31N 44°16' E 028°06'10 0.2
2018-Jul-09 14:20N 44°15' E 027°53'  
Track history (hours):
 
Tides and Currents Weather Stations Pressure Air Temp Water Temp Dewpoint Dewpoint Depression Visibility Wind Speed Wind Dir Waves Ship Positions

Spartak

Last reported at 2018-Jul-12 07:28 UTC. Time now 2018-Jul-21 15:36 UTC.
Position N 44°18' E 028°03'.
Warning: this ship's position is 9 days out of date.

Length 207 m; draft 2.4 m.

Type: Tanker. MMSI: 207072337.

Date/timePositionNaut miles runAvg speedWind from/ knotsBaromVisibWave heightAir tempDewpointWater temp
2018-Jul-12 07:28N 44°18' E 028°03'3 6.4
2018-Jul-12 06:58N 44°16' E 028°07'3 6.6
2018-Jul-12 06:30N 44°16' E 028°11'3 6.7
2018-Jul-12 06:00N 44°15' E 028°16'3 6.7
2018-Jul-12 05:30N 44°15' E 028°20'3 6.6
2018-Jul-12 05:00N 44°13' E 028°23'7 7.0
2018-Jul-12 03:57N 44°06' E 028°28'4 7.6
2018-Jul-12 03:29N 44°06' E 028°33'3 5.9
2018-Jul-12 02:59N 44°06' E 028°37'1 2.5
2018-Jul-12 02:30N 44°06' E 028°39'1 1.6
2018-Jul-12 02:01N 44°07' E 028°39'1 2.1
2018-Jul-12 01:30N 44°06' E 028°39'1 2.5
2018-Jul-12 01:00N 44°06' E 028°37'0 0.0
2018-Jul-12 00:30N 44°06' E 028°37'0 0.8
2018-Jul-12 00:00N 44°06' E 028°37'0 0.4
2018-Jul-11 23:30N 44°06' E 028°36'0 0.0
2018-Jul-11 23:00N 44°06' E 028°36'0 0.1
2018-Jul-11 22:30N 44°06' E 028°36'2 4.1
2018-Jul-11 22:00N 44°06' E 028°33'5 4.7
2018-Jul-11 20:58N 44°07' E 028°27'3 4.9
2018-Jul-11 20:19N 44°10' E 028°25'2 5.4
2018-Jul-11 20:01N 44°11' E 028°24'3 5.9
2018-Jul-11 19:29N 44°14' E 028°22'3 5.4
2018-Jul-11 19:00N 44°15' E 028°18'3 5.9
2018-Jul-11 18:30N 44°15' E 028°14'3 6.0
2018-Jul-11 18:00N 44°16' E 028°10'3 6.0
2018-Jul-11 17:31N 44°16' E 028°06'10 0.2
2018-Jul-09 14:20N 44°15' E 027°53'  

Dump ship's entire track history